sensor_id;sensor_type;location;lat;lon;timestamp;pressure;altitude;pressure_sealevel;temperature;humidity
47588;BME280;34356;45.788;12.046;2022-07-21T00:00:04;100309.01;;;28.51;26.44
47588;BME280;34356;45.788;12.046;2022-07-21T00:02:31;100311.92;;;28.48;26.38
47588;BME280;34356;45.788;12.046;2022-07-21T00:04:58;100312.10;;;28.88;26.44
47588;BME280;34356;45.788;12.046;2022-07-21T00:07:25;100309.65;;;28.82;26.54
47588;BME280;34356;45.788;12.046;2022-07-21T00:09:52;100311.00;;;28.53;26.72
47588;BME280;34356;45.788;12.046;2022-07-21T00:12:19;100306.85;;;28.64;26.84
47588;BME280;34356;45.788;12.046;2022-07-21T00:14:46;100309.03;;;28.51;27.09
47588;BME280;34356;45.788;12.046;2022-07-21T00:17:14;100312.39;;;28.15;27.22
47588;BME280;34356;45.788;12.046;2022-07-21T00:19:41;100314.07;;;28.25;27.35
47588;BME280;34356;45.788;12.046;2022-07-21T00:22:08;100314.16;;;28.14;27.41
47588;BME280;34356;45.788;12.046;2022-07-21T00:24:35;100311.35;;;28.06;27.62
47588;BME280;34356;45.788;12.046;2022-07-21T00:27:02;100310.27;;;27.95;27.65
47588;BME280;34356;45.788;12.046;2022-07-21T00:29:30;100308.85;;;27.87;27.73
47588;BME280;34356;45.788;12.046;2022-07-21T00:31:57;100306.27;;;28.30;27.85
47588;BME280;34356;45.788;12.046;2022-07-21T00:34:24;100306.32;;;28.03;27.84
47588;BME280;34356;45.788;12.046;2022-07-21T00:36:52;100303.38;;;28.14;27.97
47588;BME280;34356;45.788;12.046;2022-07-21T00:39:19;100303.26;;;27.83;28.11
47588;BME280;34356;45.788;12.046;2022-07-21T00:41:46;100302.38;;;27.52;28.18
47588;BME280;34356;45.788;12.046;2022-07-21T00:44:21;100304.99;;;27.76;28.21
47588;BME280;34356;45.788;12.046;2022-07-21T00:46:48;100304.33;;;27.70;28.25
47588;BME280;34356;45.788;12.046;2022-07-21T00:49:16;100306.97;;;27.86;28.35
47588;BME280;34356;45.788;12.046;2022-07-21T00:51:43;100305.95;;;27.55;28.39
47588;BME280;34356;45.788;12.046;2022-07-21T00:54:11;100299.80;;;27.19;28.57
47588;BME280;34356;45.788;12.046;2022-07-21T00:56:39;100295.10;;;27.44;28.54
47588;BME280;34356;45.788;12.046;2022-07-21T00:59:06;100292.26;;;27.64;28.78
47588;BME280;34356;45.788;12.046;2022-07-21T01:01:33;100290.46;;;27.59;28.83
47588;BME280;34356;45.788;12.046;2022-07-21T01:04:01;100289.94;;;27.36;28.78
47588;BME280;34356;45.788;12.046;2022-07-21T01:06:27;100289.28;;;27.32;28.84
47588;BME280;34356;45.788;12.046;2022-07-21T01:08:55;100288.60;;;27.46;28.88
47588;BME280;34356;45.788;12.046;2022-07-21T01:11:24;100288.10;;;27.39;29.06
47588;BME280;34356;45.788;12.046;2022-07-21T01:13:52;100286.04;;;27.07;29.08
47588;BME280;34356;45.788;12.046;2022-07-21T01:16:20;100289.39;;;27.21;29.10
47588;BME280;34356;45.788;12.046;2022-07-21T01:18:46;100291.84;;;27.13;29.24
47588;BME280;34356;45.788;12.046;2022-07-21T01:21:28;100287.85;;;27.03;29.33
47588;BME280;34356;45.788;12.046;2022-07-21T01:23:55;100283.07;;;26.70;29.41
47588;BME280;34356;45.788;12.046;2022-07-21T01:26:23;100288.33;;;26.65;29.47
47588;BME280;34356;45.788;12.046;2022-07-21T01:28:51;100287.02;;;26.83;29.49
47588;BME280;34356;45.788;12.046;2022-07-21T01:31:19;100285.68;;;26.76;29.49
47588;BME280;34356;45.788;12.046;2022-07-21T01:33:46;100286.35;;;26.67;29.57
47588;BME280;34356;45.788;12.046;2022-07-21T01:36:13;100293.77;;;26.61;29.69
47588;BME280;34356;45.788;12.046;2022-07-21T01:38:41;100300.76;;;26.54;29.78
47588;BME280;34356;45.788;12.046;2022-07-21T01:41:08;100311.87;;;26.46;29.91
47588;BME280;34356;45.788;12.046;2022-07-21T01:43:35;100311.23;;;26.39;29.97
47588;BME280;34356;45.788;12.046;2022-07-21T01:46:01;100311.16;;;26.31;30.09
47588;BME280;34356;45.788;12.046;2022-07-21T01:48:29;100314.38;;;26.23;30.19
47588;BME280;34356;45.788;12.046;2022-07-21T01:50:56;100311.48;;;26.15;30.27
47588;BME280;34356;45.788;12.046;2022-07-21T01:53:23;100309.36;;;26.10;30.43
47588;BME280;34356;45.788;12.046;2022-07-21T01:55:50;100307.37;;;26.49;30.57
47588;BME280;34356;45.788;12.046;2022-07-21T01:58:17;100307.69;;;26.19;30.51
47588;BME280;34356;45.788;12.046;2022-07-21T02:00:44;100305.99;;;26.38;30.69
47588;BME280;34356;45.788;12.046;2022-07-21T02:03:11;100300.62;;;25.85;30.80
47588;BME280;34356;45.788;12.046;2022-07-21T02:05:38;100292.63;;;26.08;30.77
47588;BME280;34356;45.788;12.046;2022-07-21T02:08:05;100289.42;;;26.00;30.86
47588;BME280;34356;45.788;12.046;2022-07-21T02:10:32;100290.41;;;26.00;30.91
47588;BME280;34356;45.788;12.046;2022-07-21T02:12:59;100290.92;;;26.05;30.91
47588;BME280;34356;45.788;12.046;2022-07-21T02:15:26;100291.87;;;26.26;30.86
47588;BME280;34356;45.788;12.046;2022-07-21T02:17:53;100291.51;;;26.23;30.84
47588;BME280;34356;45.788;12.046;2022-07-21T02:20:20;100287.34;;;25.69;30.89
47588;BME280;34356;45.788;12.046;2022-07-21T02:22:47;100285.93;;;26.13;30.94
47588;BME280;34356;45.788;12.046;2022-07-21T02:25:14;100283.45;;;26.09;31.12
47588;BME280;34356;45.788;12.046;2022-07-21T02:27:42;100279.81;;;26.10;31.07
47588;BME280;34356;45.788;12.046;2022-07-21T02:30:11;100273.80;;;25.88;31.16
47588;BME280;34356;45.788;12.046;2022-07-21T02:32:38;100269.06;;;25.92;31.10
47588;BME280;34356;45.788;12.046;2022-07-21T02:35:06;100269.50;;;25.96;31.06
47588;BME280;34356;45.788;12.046;2022-07-21T02:37:34;100271.32;;;26.24;30.99
47588;BME280;34356;45.788;12.046;2022-07-21T02:40:00;100274.42;;;26.24;30.97
47588;BME280;34356;45.788;12.046;2022-07-21T02:42:28;100277.91;;;26.01;30.94
47588;BME280;34356;45.788;12.046;2022-07-21T02:44:55;100279.37;;;25.98;30.99
47588;BME280;34356;45.788;12.046;2022-07-21T02:47:22;100276.88;;;26.17;31.02
47588;BME280;34356;45.788;12.046;2022-07-21T02:49:49;100272.31;;;26.13;31.10
47588;BME280;34356;45.788;12.046;2022-07-21T02:52:16;100269.73;;;26.10;31.10
47588;BME280;34356;45.788;12.046;2022-07-21T02:54:43;100270.71;;;26.08;31.17
47588;BME280;34356;45.788;12.046;2022-07-21T02:57:10;100269.74;;;26.07;31.17
47588;BME280;34356;45.788;12.046;2022-07-21T02:59:37;100268.81;;;26.06;31.20
47588;BME280;34356;45.788;12.046;2022-07-21T03:02:04;100270.77;;;26.05;31.23
47588;BME280;34356;45.788;12.046;2022-07-21T03:04:31;100268.11;;;26.04;31.25
47588;BME280;34356;45.788;12.046;2022-07-21T03:06:58;100269.76;;;26.03;31.24
47588;BME280;34356;45.788;12.046;2022-07-21T03:09:25;100268.30;;;25.80;31.23
47588;BME280;34356;45.788;12.046;2022-07-21T03:11:52;100266.39;;;26.01;31.27
47588;BME280;34356;45.788;12.046;2022-07-21T03:14:20;100267.81;;;26.01;31.26
47588;BME280;34356;45.788;12.046;2022-07-21T03:16:47;100270.42;;;26.00;31.24
47588;BME280;34356;45.788;12.046;2022-07-21T03:19:14;100266.79;;;25.95;31.30
47588;BME280;34356;45.788;12.046;2022-07-21T03:21:41;100262.80;;;25.94;31.30
47588;BME280;34356;45.788;12.046;2022-07-21T03:24:08;100259.00;;;25.97;31.37
47588;BME280;34356;45.788;12.046;2022-07-21T03:26:34;100260.89;;;26.01;31.35
47588;BME280;34356;45.788;12.046;2022-07-21T03:29:02;100259.08;;;26.05;31.33
47588;BME280;34356;45.788;12.046;2022-07-21T03:31:29;100257.98;;;26.09;31.23
47588;BME280;34356;45.788;12.046;2022-07-21T03:33:56;100260.09;;;26.09;31.23
47588;BME280;34356;45.788;12.046;2022-07-21T03:36:23;100267.41;;;26.06;31.31
47588;BME280;34356;45.788;12.046;2022-07-21T03:38:50;100271.18;;;25.80;31.38
47588;BME280;34356;45.788;12.046;2022-07-21T03:41:17;100272.88;;;25.78;31.49
47588;BME280;34356;45.788;12.046;2022-07-21T03:43:44;100268.14;;;25.72;31.48
47588;BME280;34356;45.788;12.046;2022-07-21T03:46:11;100268.01;;;25.92;31.52
47588;BME280;34356;45.788;12.046;2022-07-21T03:48:39;100270.21;;;25.93;31.54
47588;BME280;34356;45.788;12.046;2022-07-21T03:51:06;100270.72;;;25.73;31.52
47588;BME280;34356;45.788;12.046;2022-07-21T03:53:33;100272.57;;;25.74;31.51
47588;BME280;34356;45.788;12.046;2022-07-21T03:56:00;100270.03;;;25.74;31.49
47588;BME280;34356;45.788;12.046;2022-07-21T03:58:28;100272.33;;;25.94;31.55
47588;BME280;34356;45.788;12.046;2022-07-21T04:00:55;100275.71;;;25.91;31.62
47588;BME280;34356;45.788;12.046;2022-07-21T04:03:22;100279.80;;;25.86;31.58
47588;BME280;34356;45.788;12.046;2022-07-21T04:05:50;100280.09;;;26.34;31.60
47588;BME280;34356;45.788;12.046;2022-07-21T04:08:16;100284.41;;;25.78;31.69
47588;BME280;34356;45.788;12.046;2022-07-21T04:10:44;100284.17;;;25.53;31.72
47588;BME280;34356;45.788;12.046;2022-07-21T04:13:13;100285.60;;;25.72;31.78
47588;BME280;34356;45.788;12.046;2022-07-21T04:15:40;100284.47;;;25.69;31.86
47588;BME280;34356;45.788;12.046;2022-07-21T04:18:08;100281.77;;;25.68;31.93
47588;BME280;34356;45.788;12.046;2022-07-21T04:20:36;100281.22;;;25.69;31.93
47588;BME280;34356;45.788;12.046;2022-07-21T04:23:03;100282.41;;;25.71;31.95
47588;BME280;34356;45.788;12.046;2022-07-21T04:25:31;100284.90;;;25.75;31.92
47588;BME280;34356;45.788;12.046;2022-07-21T04:27:58;100284.64;;;25.58;31.82
47588;BME280;34356;45.788;12.046;2022-07-21T04:30:25;100278.12;;;25.65;31.75
47588;BME280;34356;45.788;12.046;2022-07-21T04:32:53;100278.29;;;25.42;31.80
47588;BME280;34356;45.788;12.046;2022-07-21T04:35:21;100280.89;;;25.94;31.75
47588;BME280;34356;45.788;12.046;2022-07-21T04:37:49;100285.18;;;26.17;31.85
47588;BME280;34356;45.788;12.046;2022-07-21T04:40:16;100285.49;;;25.72;31.88
47588;BME280;34356;45.788;12.046;2022-07-21T04:42:44;100280.41;;;25.97;31.83
47588;BME280;34356;45.788;12.046;2022-07-21T04:45:14;100282.02;;;25.53;31.87
47588;BME280;34356;45.788;12.046;2022-07-21T04:47:43;100282.91;;;25.61;31.92
47588;BME280;34356;45.788;12.046;2022-07-21T04:50:10;100282.00;;;26.19;31.84
47588;BME280;34356;45.788;12.046;2022-07-21T04:52:38;100280.63;;;25.78;31.70
47588;BME280;34356;45.788;12.046;2022-07-21T04:55:06;100281.26;;;26.38;31.61
47588;BME280;34356;45.788;12.046;2022-07-21T04:57:37;100281.08;;;26.22;31.61
47588;BME280;34356;45.788;12.046;2022-07-21T05:00:06;100282.37;;;26.03;31.52
47588;BME280;34356;45.788;12.046;2022-07-21T05:02:33;100280.35;;;26.38;31.54
47588;BME280;34356;45.788;12.046;2022-07-21T05:05:01;100280.75;;;26.20;31.43
47588;BME280;34356;45.788;12.046;2022-07-21T05:07:29;100285.27;;;26.30;31.27
47588;BME280;34356;45.788;12.046;2022-07-21T05:09:55;100288.47;;;26.84;31.31
47588;BME280;34356;45.788;12.046;2022-07-21T05:12:22;100286.44;;;26.40;31.24
47588;BME280;34356;45.788;12.046;2022-07-21T05:14:49;100286.68;;;26.65;31.28
47588;BME280;34356;45.788;12.046;2022-07-21T05:17:17;100284.75;;;26.84;31.24
47588;BME280;34356;45.788;12.046;2022-07-21T05:19:45;100284.53;;;26.83;31.25
47588;BME280;34356;45.788;12.046;2022-07-21T05:22:12;100293.14;;;26.59;31.37
47588;BME280;34356;45.788;12.046;2022-07-21T05:24:40;100295.98;;;26.36;31.34
47588;BME280;34356;45.788;12.046;2022-07-21T05:27:06;100299.63;;;26.86;31.37
47588;BME280;34356;45.788;12.046;2022-07-21T05:29:33;100296.74;;;26.85;31.38
47588;BME280;34356;45.788;12.046;2022-07-21T05:32:01;100300.12;;;26.83;31.47
47588;BME280;34356;45.788;12.046;2022-07-21T05:34:29;100302.07;;;26.85;31.58
47588;BME280;34356;45.788;12.046;2022-07-21T05:36:56;100302.33;;;26.84;31.59
47588;BME280;34356;45.788;12.046;2022-07-21T05:39:23;100299.21;;;26.41;31.52
47588;BME280;34356;45.788;12.046;2022-07-21T05:41:51;100298.09;;;26.53;31.46
47588;BME280;34356;45.788;12.046;2022-07-21T05:44:18;100295.31;;;26.92;31.33
47588;BME280;34356;45.788;12.046;2022-07-21T05:46:45;100294.59;;;26.76;31.34
47588;BME280;34356;45.788;12.046;2022-07-21T05:49:13;100290.62;;;26.91;31.20
47588;BME280;34356;45.788;12.046;2022-07-21T05:51:40;100287.80;;;27.07;31.10
47588;BME280;34356;45.788;12.046;2022-07-21T05:54:07;100287.55;;;26.99;30.80
47588;BME280;34356;45.788;12.046;2022-07-21T05:56:35;100287.73;;;27.03;30.83
47588;BME280;34356;45.788;12.046;2022-07-21T05:59:02;100294.04;;;27.16;30.81
47588;BME280;34356;45.788;12.046;2022-07-21T06:01:29;100295.93;;;27.28;30.80
47588;BME280;34356;45.788;12.046;2022-07-21T06:03:56;100292.08;;;27.59;30.72
47588;BME280;34356;45.788;12.046;2022-07-21T06:06:23;100293.54;;;27.46;30.61
47588;BME280;34356;45.788;12.046;2022-07-21T06:08:50;100296.43;;;27.70;30.59
47588;BME280;34356;45.788;12.046;2022-07-21T06:11:19;100302.39;;;27.52;30.63
47588;BME280;34356;45.788;12.046;2022-07-21T06:13:47;100303.63;;;27.82;30.66
47588;BME280;34356;45.788;12.046;2022-07-21T06:16:14;100301.20;;;27.69;30.65
47588;BME280;34356;45.788;12.046;2022-07-21T06:18:41;100298.60;;;27.82;30.53
47588;BME280;34356;45.788;12.046;2022-07-21T06:21:08;100296.46;;;27.88;30.50
47588;BME280;34356;45.788;12.046;2022-07-21T06:23:35;100300.81;;;27.66;30.44
47588;BME280;34356;45.788;12.046;2022-07-21T06:26:02;100306.82;;;27.96;30.53
47588;BME280;34356;45.788;12.046;2022-07-21T06:28:29;100308.01;;;27.77;30.44
47588;BME280;34356;45.788;12.046;2022-07-21T06:30:56;100307.55;;;28.33;30.43
47588;BME280;34356;45.788;12.046;2022-07-21T06:33:23;100305.51;;;27.93;30.46
47588;BME280;34356;45.788;12.046;2022-07-21T06:35:51;100303.43;;;28.25;30.31
47588;BME280;34356;45.788;12.046;2022-07-21T06:38:18;100304.09;;;28.02;30.30
47588;BME280;34356;45.788;12.046;2022-07-21T06:40:45;100301.79;;;28.15;30.25
47588;BME280;34356;45.788;12.046;2022-07-21T06:43:13;100301.17;;;28.25;30.20
47588;BME280;34356;45.788;12.046;2022-07-21T06:45:40;100300.57;;;28.24;30.25
47588;BME280;34356;45.788;12.046;2022-07-21T06:48:08;100299.52;;;28.33;30.15
47588;BME280;34356;45.788;12.046;2022-07-21T06:50:36;100298.02;;;28.46;29.96
47588;BME280;34356;45.788;12.046;2022-07-21T06:53:05;100300.85;;;28.57;29.88
47588;BME280;34356;45.788;12.046;2022-07-21T06:55:32;100300.92;;;28.71;29.74
47588;BME280;34356;45.788;12.046;2022-07-21T06:58:08;100301.60;;;28.40;29.64
47588;BME280;34356;45.788;12.046;2022-07-21T07:00:36;100300.58;;;28.75;29.43
47588;BME280;34356;45.788;12.046;2022-07-21T07:03:04;100304.06;;;28.86;29.31
47588;BME280;34356;45.788;12.046;2022-07-21T07:05:30;100302.95;;;29.22;29.11
47588;BME280;34356;45.788;12.046;2022-07-21T07:07:57;100300.52;;;29.11;29.00
47588;BME280;34356;45.788;12.046;2022-07-21T07:10:25;100301.42;;;29.03;28.86
47588;BME280;34356;45.788;12.046;2022-07-21T07:12:53;100303.31;;;29.15;28.73
47588;BME280;34356;45.788;12.046;2022-07-21T07:15:22;100307.74;;;29.27;28.58
47588;BME280;34356;45.788;12.046;2022-07-21T07:17:50;100304.57;;;29.31;28.43
47588;BME280;34356;45.788;12.046;2022-07-21T07:20:18;100304.97;;;29.38;28.32
47588;BME280;34356;45.788;12.046;2022-07-21T07:22:45;100308.48;;;29.41;28.19
47588;BME280;34356;45.788;12.046;2022-07-21T07:25:12;100307.95;;;29.63;28.14
47588;BME280;34356;45.788;12.046;2022-07-21T07:27:39;100304.26;;;29.42;28.01
47588;BME280;34356;45.788;12.046;2022-07-21T07:30:08;100306.15;;;29.53;27.91
47588;BME280;34356;45.788;12.046;2022-07-21T07:32:35;100307.74;;;29.68;27.73
47588;BME280;34356;45.788;12.046;2022-07-21T07:35:02;100309.61;;;29.81;27.66
47588;BME280;34356;45.788;12.046;2022-07-21T07:37:30;100307.60;;;29.91;27.60
47588;BME280;34356;45.788;12.046;2022-07-21T07:39:57;100308.01;;;30.03;27.56
47588;BME280;34356;45.788;12.046;2022-07-21T07:42:24;100309.09;;;30.17;27.44
47588;BME280;34356;45.788;12.046;2022-07-21T07:44:51;100305.52;;;30.31;27.40
47588;BME280;34356;45.788;12.046;2022-07-21T07:47:18;100304.04;;;30.15;27.34
47588;BME280;34356;45.788;12.046;2022-07-21T07:49:45;100302.13;;;30.24;27.33
47588;BME280;34356;45.788;12.046;2022-07-21T07:52:12;100302.92;;;30.12;27.25
47588;BME280;34356;45.788;12.046;2022-07-21T07:54:39;100301.26;;;30.42;27.21
47588;BME280;34356;45.788;12.046;2022-07-21T07:57:06;100300.90;;;30.27;27.09
47588;BME280;34356;45.788;12.046;2022-07-21T07:59:33;100302.85;;;30.40;26.89
47588;BME280;34356;45.788;12.046;2022-07-21T08:01:59;100297.00;;;30.44;26.80
47588;BME280;34356;45.788;12.046;2022-07-21T08:04:27;100291.62;;;30.50;26.70
47588;BME280;34356;45.788;12.046;2022-07-21T08:06:53;100291.46;;;30.57;26.62
47588;BME280;34356;45.788;12.046;2022-07-21T08:09:20;100293.11;;;30.66;26.66
47588;BME280;34356;45.788;12.046;2022-07-21T08:11:48;100292.52;;;30.77;26.54
47588;BME280;34356;45.788;12.046;2022-07-21T08:14:16;100292.11;;;30.87;26.53
47588;BME280;34356;45.788;12.046;2022-07-21T08:16:43;100292.59;;;30.98;26.50
47588;BME280;34356;45.788;12.046;2022-07-21T08:19:10;100291.41;;;30.59;26.42
47588;BME280;34356;45.788;12.046;2022-07-21T08:21:37;100291.44;;;30.70;26.35
47588;BME280;34356;45.788;12.046;2022-07-21T08:24:05;100288.14;;;30.81;26.31
47588;BME280;34356;45.788;12.046;2022-07-21T08:26:33;100287.49;;;31.11;26.27
47588;BME280;34356;45.788;12.046;2022-07-21T08:29:00;100284.25;;;30.95;26.19
47588;BME280;34356;45.788;12.046;2022-07-21T08:31:28;100287.99;;;30.99;26.19
47588;BME280;34356;45.788;12.046;2022-07-21T08:33:54;100289.57;;;31.03;26.14
47588;BME280;34356;45.788;12.046;2022-07-21T08:36:21;100286.20;;;31.07;26.04
47588;BME280;34356;45.788;12.046;2022-07-21T08:38:48;100286.05;;;31.12;25.95
47588;BME280;34356;45.788;12.046;2022-07-21T08:41:16;100280.79;;;31.64;25.86
47588;BME280;34356;45.788;12.046;2022-07-21T08:43:43;100279.01;;;31.21;25.82
47588;BME280;34356;45.788;12.046;2022-07-21T08:46:10;100278.55;;;31.25;25.80
47588;BME280;34356;45.788;12.046;2022-07-21T08:48:37;100275.48;;;31.29;25.72
47588;BME280;34356;45.788;12.046;2022-07-21T08:51:05;100273.97;;;31.35;25.64
47588;BME280;34356;45.788;12.046;2022-07-21T08:53:31;100271.25;;;31.42;25.50
47588;BME280;34356;45.788;12.046;2022-07-21T08:55:59;100272.11;;;31.50;25.31
47588;BME280;34356;45.788;12.046;2022-07-21T08:58:26;100274.08;;;31.51;25.08
47588;BME280;34356;45.788;12.046;2022-07-21T09:00:53;100274.39;;;31.56;24.96
47588;BME280;34356;45.788;12.046;2022-07-21T09:03:22;100275.92;;;31.85;25.07
47588;BME280;34356;45.788;12.046;2022-07-21T09:06:07;100272.64;;;31.71;25.03
47588;BME280;34356;45.788;12.046;2022-07-21T09:08:36;100276.01;;;31.78;24.98
47588;BME280;34356;45.788;12.046;2022-07-21T09:11:15;100276.05;;;31.85;24.84
47588;BME280;34356;45.788;12.046;2022-07-21T09:13:44;100272.82;;;31.92;24.63
47588;BME280;34356;45.788;12.046;2022-07-21T09:16:12;100273.78;;;31.80;24.46
47588;BME280;34356;45.788;12.046;2022-07-21T09:18:48;100273.46;;;31.89;24.51
47588;BME280;34356;45.788;12.046;2022-07-21T09:21:17;100270.67;;;31.98;24.42
47588;BME280;34356;45.788;12.046;2022-07-21T09:23:46;100271.29;;;32.07;24.28
47588;BME280;34356;45.788;12.046;2022-07-21T09:26:13;100273.99;;;32.13;24.17
47588;BME280;34356;45.788;12.046;2022-07-21T09:28:41;100272.70;;;32.41;23.83
47588;BME280;34356;45.788;12.046;2022-07-21T09:31:09;100273.62;;;32.43;23.65
47588;BME280;34356;45.788;12.046;2022-07-21T09:33:39;100274.30;;;32.46;23.55
47588;BME280;34356;45.788;12.046;2022-07-21T09:36:09;100275.18;;;32.47;23.25
47588;BME280;34356;45.788;12.046;2022-07-21T09:38:39;100271.72;;;32.47;22.98
47588;BME280;34356;45.788;12.046;2022-07-21T09:41:09;100271.58;;;32.51;22.67
47588;BME280;34356;45.788;12.046;2022-07-21T09:43:40;100272.39;;;32.56;22.56
47588;BME280;34356;45.788;12.046;2022-07-21T09:46:10;100269.63;;;32.11;22.17
47588;BME280;34356;45.788;12.046;2022-07-21T09:48:39;100270.99;;;32.66;22.23
47588;BME280;34356;45.788;12.046;2022-07-21T09:51:38;100270.77;;;32.22;21.82
47588;BME280;34356;45.788;12.046;2022-07-21T09:54:09;100268.12;;;32.55;21.97
47588;BME280;34356;45.788;12.046;2022-07-21T09:56:38;100268.24;;;32.57;21.52
47588;BME280;34356;45.788;12.046;2022-07-21T09:59:08;100269.16;;;32.62;21.43
47588;BME280;34356;45.788;12.046;2022-07-21T10:01:36;100266.05;;;32.89;21.35
47588;BME280;34356;45.788;12.046;2022-07-21T10:04:04;100264.54;;;32.71;21.27
47588;BME280;34356;45.788;12.046;2022-07-21T10:06:35;100261.36;;;32.51;21.00
47588;BME280;34356;45.788;12.046;2022-07-21T10:09:05;100261.65;;;32.88;21.14
47588;BME280;34356;45.788;12.046;2022-07-21T10:11:33;100260.26;;;32.69;20.86
47588;BME280;34356;45.788;12.046;2022-07-21T10:14:01;100255.99;;;32.75;20.81
47588;BME280;34356;45.788;12.046;2022-07-21T10:16:29;100254.58;;;32.87;20.77
47588;BME280;34356;45.788;12.046;2022-07-21T10:19:16;100256.97;;;33.03;20.61
47588;BME280;34356;45.788;12.046;2022-07-21T10:21:51;100251.93;;;32.76;20.40
47588;BME280;34356;45.788;12.046;2022-07-21T10:24:21;100248.21;;;33.32;20.21
47588;BME280;34356;45.788;12.046;2022-07-21T10:27:07;100246.03;;;33.40;20.09
47588;BME280;34356;45.788;12.046;2022-07-21T10:29:53;100247.47;;;33.51;19.96
47588;BME280;34356;45.788;12.046;2022-07-21T10:32:23;100249.33;;;33.41;20.03
47588;BME280;34356;45.788;12.046;2022-07-21T10:34:51;100249.28;;;33.72;19.87
47588;BME280;34356;45.788;12.046;2022-07-21T10:37:52;100247.22;;;33.79;19.87
47588;BME280;34356;45.788;12.046;2022-07-21T10:40:37;100248.00;;;33.46;19.80
47588;BME280;34356;45.788;12.046;2022-07-21T10:43:39;100248.48;;;33.58;19.70
47588;BME280;34356;45.788;12.046;2022-07-21T10:46:39;100249.38;;;33.72;19.61
47588;BME280;34356;45.788;12.046;2022-07-21T10:49:08;100248.70;;;33.86;19.58
47588;BME280;34356;45.788;12.046;2022-07-21T10:51:38;100247.47;;;33.99;19.53
47588;BME280;34356;45.788;12.046;2022-07-21T10:54:37;100248.08;;;34.09;19.41
47588;BME280;34356;45.788;12.046;2022-07-21T10:57:38;100244.06;;;33.95;19.29
47588;BME280;34356;45.788;12.046;2022-07-21T11:00:24;100242.15;;;34.32;19.19
47588;BME280;34356;45.788;12.046;2022-07-21T11:02:54;100237.99;;;34.12;19.15
47588;BME280;34356;45.788;12.046;2022-07-21T11:05:23;100240.32;;;34.19;19.21
47588;BME280;34356;45.788;12.046;2022-07-21T11:08:30;100236.44;;;34.50;19.22
47588;BME280;34356;45.788;12.046;2022-07-21T11:11:07;100234.37;;;34.58;19.18
47588;BME280;34356;45.788;12.046;2022-07-21T11:13:59;100234.41;;;34.65;19.10
47588;BME280;34356;45.788;12.046;2022-07-21T11:16:57;100234.98;;;34.46;19.09
47588;BME280;34356;45.788;12.046;2022-07-21T11:19:31;100227.11;;;34.82;18.87
47588;BME280;34356;45.788;12.046;2022-07-21T11:22:01;100231.30;;;34.41;18.70
47588;BME280;34356;45.788;12.046;2022-07-21T11:24:29;100227.52;;;34.95;18.49
47588;BME280;34356;45.788;12.046;2022-07-21T11:26:59;100226.90;;;35.03;18.57
47588;BME280;34356;45.788;12.046;2022-07-21T11:29:27;100223.67;;;34.84;18.52
47588;BME280;34356;45.788;12.046;2022-07-21T11:31:54;100225.32;;;34.66;18.46
47588;BME280;34356;45.788;12.046;2022-07-21T11:34:22;100222.56;;;34.66;18.21
47588;BME280;34356;45.788;12.046;2022-07-21T11:36:58;100219.07;;;34.94;18.36
47588;BME280;34356;45.788;12.046;2022-07-21T11:39:25;100218.79;;;34.99;18.26
47588;BME280;34356;45.788;12.046;2022-07-21T11:41:53;100219.70;;;35.01;18.35
47588;BME280;34356;45.788;12.046;2022-07-21T11:44:24;100217.97;;;35.02;18.12
47588;BME280;34356;45.788;12.046;2022-07-21T11:46:54;100220.42;;;35.08;18.00
47588;BME280;34356;45.788;12.046;2022-07-21T11:49:21;100210.80;;;35.15;17.72
47588;BME280;34356;45.788;12.046;2022-07-21T11:51:51;100207.49;;;35.02;17.79
47588;BME280;34356;45.788;12.046;2022-07-21T11:54:21;100207.23;;;35.16;17.79
47588;BME280;34356;45.788;12.046;2022-07-21T11:56:50;100203.66;;;35.29;17.76
47588;BME280;34356;45.788;12.046;2022-07-21T11:59:18;100205.09;;;35.67;17.74
47588;BME280;34356;45.788;12.046;2022-07-21T12:01:51;100199.27;;;35.58;17.75
47588;BME280;34356;45.788;12.046;2022-07-21T12:04:37;100193.88;;;35.41;17.72
47588;BME280;34356;45.788;12.046;2022-07-21T12:07:11;100191.65;;;35.76;17.72
47588;BME280;34356;45.788;12.046;2022-07-21T12:09:39;100187.68;;;35.56;17.74
47588;BME280;34356;45.788;12.046;2022-07-21T12:12:07;100186.91;;;35.91;17.69
47588;BME280;34356;45.788;12.046;2022-07-21T12:14:45;100183.66;;;35.76;17.66
47588;BME280;34356;45.788;12.046;2022-07-21T12:17:13;100178.87;;;35.71;17.58
47588;BME280;34356;45.788;12.046;2022-07-21T12:19:40;100175.78;;;35.86;17.49
47588;BME280;34356;45.788;12.046;2022-07-21T12:22:08;100176.71;;;36.01;17.46
47588;BME280;34356;45.788;12.046;2022-07-21T12:24:54;100179.87;;;36.13;17.42
47588;BME280;34356;45.788;12.046;2022-07-21T12:27:23;100182.29;;;36.52;17.36
47588;BME280;34356;45.788;12.046;2022-07-21T12:29:51;100176.55;;;36.39;17.31
47588;BME280;34356;45.788;12.046;2022-07-21T12:32:50;100179.01;;;36.46;17.27
47588;BME280;34356;45.788;12.046;2022-07-21T12:35:21;100168.83;;;36.56;17.19
47588;BME280;34356;45.788;12.046;2022-07-21T12:37:55;100167.37;;;36.75;17.13
47588;BME280;34356;45.788;12.046;2022-07-21T12:40:24;100169.17;;;36.98;16.97
47588;BME280;34356;45.788;12.046;2022-07-21T12:43:02;100168.00;;;36.94;16.86
47588;BME280;34356;45.788;12.046;2022-07-21T12:45:30;100169.73;;;37.13;16.71
47588;BME280;34356;45.788;12.046;2022-07-21T12:48:09;100164.85;;;37.02;16.69
47588;BME280;34356;45.788;12.046;2022-07-21T12:50:37;100160.79;;;37.43;16.67